Terminal Aerodrome Forecast
Issued by NWS

Home | Current Version | Previous Version | Text Only | Print | Product List | Glossary On
Versions: 1 2 3 4 5 6 7 8 9 10 11 12 13 14 15
000
FTUS42 KTBW 311120
TAFLAL
TAF
KLAL 311120Z 3112/0112 VRB03KT P6SM SCT045 BKN100
     FM311600 22010KT P6SM VCTS SCT030CB BKN250
     FM010000 20005KT P6SM SCT030 BKN250=

USA.gov is the U.S. government's official web portal to all federal, state and local government web resources and services.